sensor_id;sensor_type;location;lat;lon;timestamp;pressure;altitude;pressure_sealevel;temperature;humidity
72855;BME280;60991;51.278;22.550;2023-04-26T00:01:03;98141.66;;;7.24;82.61
72855;BME280;60991;51.278;22.550;2023-04-26T00:02:34;98145.91;;;7.25;82.20
72855;BME280;60991;51.278;22.550;2023-04-26T00:04:04;98143.72;;;7.17;82.65
72855;BME280;60991;51.278;22.550;2023-04-26T00:05:34;98140.34;;;7.21;82.82
72855;BME280;60991;51.278;22.550;2023-04-26T00:07:04;98138.78;;;7.25;82.55
72855;BME280;60991;51.278;22.550;2023-04-26T00:08:35;98145.41;;;7.28;81.89
72855;BME280;60991;51.278;22.550;2023-04-26T00:10:06;98147.00;;;7.29;81.94
72855;BME280;60991;51.278;22.550;2023-04-26T00:11:36;98145.72;;;7.32;82.84
72855;BME280;60991;51.278;22.550;2023-04-26T00:13:06;98143.00;;;7.26;82.47
72855;BME280;60991;51.278;22.550;2023-04-26T00:14:36;98141.72;;;7.29;82.18
72855;BME280;60991;51.278;22.550;2023-04-26T00:16:07;98142.22;;;7.26;82.53
72855;BME280;60991;51.278;22.550;2023-04-26T00:17:37;98142.53;;;7.29;82.96
72855;BME280;60991;51.278;22.550;2023-04-26T00:19:07;98151.25;;;7.30;82.77
72855;BME280;60991;51.278;22.550;2023-04-26T00:20:37;98140.38;;;7.26;82.82
72855;BME280;60991;51.278;22.550;2023-04-26T00:22:07;98154.84;;;7.24;82.89
72855;BME280;60991;51.278;22.550;2023-04-26T00:23:38;98147.81;;;7.29;82.88
72855;BME280;60991;51.278;22.550;2023-04-26T00:25:08;98151.56;;;7.34;82.32
72855;BME280;60991;51.278;22.550;2023-04-26T00:26:38;98154.84;;;7.24;82.85
72855;BME280;60991;51.278;22.550;2023-04-26T00:28:09;98159.09;;;7.25;83.28
72855;BME280;60991;51.278;22.550;2023-04-26T00:29:39;98153.31;;;7.28;83.25
72855;BME280;60991;51.278;22.550;2023-04-26T00:31:14;98154.44;;;7.32;82.98
72855;BME280;60991;51.278;22.550;2023-04-26T00:32:44;98150.75;;;7.33;83.21
72855;BME280;60991;51.278;22.550;2023-04-26T00:34:14;98158.19;;;7.36;82.70
72855;BME280;60991;51.278;22.550;2023-04-26T00:35:44;98164.25;;;7.37;82.79
72855;BME280;60991;51.278;22.550;2023-04-26T00:37:14;98167.88;;;7.52;82.81
72855;BME280;60991;51.278;22.550;2023-04-26T00:38:45;98162.47;;;7.42;82.49
72855;BME280;60991;51.278;22.550;2023-04-26T00:40:15;98164.63;;;7.45;82.29
72855;BME280;60991;51.278;22.550;2023-04-26T00:41:46;98153.13;;;7.56;82.10
72855;BME280;60991;51.278;22.550;2023-04-26T00:43:16;98164.00;;;7.60;82.37
72855;BME280;60991;51.278;22.550;2023-04-26T00:44:47;98163.09;;;7.49;82.46
72855;BME280;60991;51.278;22.550;2023-04-26T00:46:17;98173.03;;;7.42;82.16
72855;BME280;60991;51.278;22.550;2023-04-26T00:47:47;98167.47;;;7.39;82.99
72855;BME280;60991;51.278;22.550;2023-04-26T00:49:20;98169.72;;;7.52;82.37
72855;BME280;60991;51.278;22.550;2023-04-26T00:50:51;98155.09;;;7.44;82.71
72855;BME280;60991;51.278;22.550;2023-04-26T00:52:21;98164.38;;;7.47;82.50
72855;BME280;60991;51.278;22.550;2023-04-26T00:53:53;98168.13;;;7.51;82.34
72855;BME280;60991;51.278;22.550;2023-04-26T00:55:24;98171.16;;;7.64;82.46
72855;BME280;60991;51.278;22.550;2023-04-26T00:56:54;98166.34;;;7.56;82.55
72855;BME280;60991;51.278;22.550;2023-04-26T00:58:24;98166.66;;;7.60;82.88
72855;BME280;60991;51.278;22.550;2023-04-26T00:59:54;98156.97;;;7.71;81.32
72855;BME280;60991;51.278;22.550;2023-04-26T01:01:25;98166.75;;;7.70;82.01
72855;BME280;60991;51.278;22.550;2023-04-26T01:02:55;98161.66;;;7.63;81.69
72855;BME280;60991;51.278;22.550;2023-04-26T01:04:25;98168.44;;;7.54;81.74
72855;BME280;60991;51.278;22.550;2023-04-26T01:05:56;98165.00;;;7.54;81.93
72855;BME280;60991;51.278;22.550;2023-04-26T01:07:27;98167.16;;;7.62;81.49
72855;BME280;60991;51.278;22.550;2023-04-26T01:08:58;98162.94;;;7.61;81.88
72855;BME280;60991;51.278;22.550;2023-04-26T01:10:31;98170.75;;;7.51;81.80
72855;BME280;60991;51.278;22.550;2023-04-26T01:12:02;98174.19;;;7.51;82.26
72855;BME280;60991;51.278;22.550;2023-04-26T01:13:32;98167.00;;;7.47;82.59
72855;BME280;60991;51.278;22.550;2023-04-26T01:15:04;98168.66;;;7.53;82.97
72855;BME280;60991;51.278;22.550;2023-04-26T01:16:34;98173.16;;;7.52;82.40
72855;BME280;60991;51.278;22.550;2023-04-26T01:18:05;98179.47;;;7.51;82.62
72855;BME280;60991;51.278;22.550;2023-04-26T01:19:35;98182.91;;;7.52;83.16
72855;BME280;60991;51.278;22.550;2023-04-26T01:21:05;98176.28;;;7.49;83.52
72855;BME280;60991;51.278;22.550;2023-04-26T01:22:35;98179.94;;;7.70;82.40
72855;BME280;60991;51.278;22.550;2023-04-26T01:24:08;98187.31;;;7.68;82.16
72855;BME280;60991;51.278;22.550;2023-04-26T01:25:39;98186.53;;;7.68;82.10
72855;BME280;60991;51.278;22.550;2023-04-26T01:27:09;98175.41;;;7.65;82.19
72855;BME280;60991;51.278;22.550;2023-04-26T01:28:39;98188.84;;;7.64;82.26
72855;BME280;60991;51.278;22.550;2023-04-26T01:30:10;98180.28;;;7.52;83.29
72855;BME280;60991;51.278;22.550;2023-04-26T01:31:40;98186.78;;;7.44;83.48
72855;BME280;60991;51.278;22.550;2023-04-26T01:33:10;98188.63;;;7.44;83.68
72855;BME280;60991;51.278;22.550;2023-04-26T01:34:40;98190.03;;;7.51;82.93
72855;BME280;60991;51.278;22.550;2023-04-26T01:36:11;98187.72;;;7.55;82.23
72855;BME280;60991;51.278;22.550;2023-04-26T01:37:41;98192.75;;;7.56;82.42
72855;BME280;60991;51.278;22.550;2023-04-26T01:39:11;98190.59;;;7.53;82.52
72855;BME280;60991;51.278;22.550;2023-04-26T01:40:41;98191.63;;;7.52;82.64
72855;BME280;60991;51.278;22.550;2023-04-26T01:42:11;98203.81;;;7.53;82.11
72855;BME280;60991;51.278;22.550;2023-04-26T01:43:42;98202.19;;;7.52;82.27
72855;BME280;60991;51.278;22.550;2023-04-26T01:45:12;98185.25;;;7.48;82.17
72855;BME280;60991;51.278;22.550;2023-04-26T01:46:42;98205.22;;;7.39;82.08
72855;BME280;60991;51.278;22.550;2023-04-26T01:48:12;98201.78;;;7.39;82.22
72855;BME280;60991;51.278;22.550;2023-04-26T01:49:43;98205.22;;;7.39;82.24
72855;BME280;60991;51.278;22.550;2023-04-26T01:51:13;98206.31;;;7.43;82.50
72855;BME280;60991;51.278;22.550;2023-04-26T01:52:43;98209.63;;;7.55;81.18
72855;BME280;60991;51.278;22.550;2023-04-26T01:54:13;98208.53;;;7.51;81.20
72855;BME280;60991;51.278;22.550;2023-04-26T01:55:43;98214.53;;;7.47;81.36
72855;BME280;60991;51.278;22.550;2023-04-26T01:57:14;98215.03;;;7.44;81.63
72855;BME280;60991;51.278;22.550;2023-04-26T01:58:44;98206.63;;;7.47;81.81
72855;BME280;60991;51.278;22.550;2023-04-26T02:00:14;98203.50;;;7.50;81.96
72855;BME280;60991;51.278;22.550;2023-04-26T02:01:44;98205.50;;;7.43;81.51
72855;BME280;60991;51.278;22.550;2023-04-26T02:03:15;98209.69;;;7.39;81.80
72855;BME280;60991;51.278;22.550;2023-04-26T02:04:45;98209.47;;;7.40;81.70
72855;BME280;60991;51.278;22.550;2023-04-26T02:06:16;98204.41;;;7.39;81.62
72855;BME280;60991;51.278;22.550;2023-04-26T02:07:46;98207.84;;;7.39;81.75
72855;BME280;60991;51.278;22.550;2023-04-26T02:09:16;98206.03;;;7.40;81.54
72855;BME280;60991;51.278;22.550;2023-04-26T02:10:47;98207.66;;;7.46;80.97
72855;BME280;60991;51.278;22.550;2023-04-26T02:12:17;98206.84;;;7.45;81.62
72855;BME280;60991;51.278;22.550;2023-04-26T02:13:47;98194.69;;;7.66;81.53
72855;BME280;60991;51.278;22.550;2023-04-26T02:15:17;98193.06;;;7.60;80.49
72855;BME280;60991;51.278;22.550;2023-04-26T02:16:47;98203.88;;;7.58;81.08
72855;BME280;60991;51.278;22.550;2023-04-26T02:18:18;98192.59;;;7.68;80.59
72855;BME280;60991;51.278;22.550;2023-04-26T02:19:48;98194.84;;;7.54;80.81
72855;BME280;60991;51.278;22.550;2023-04-26T02:21:18;98201.56;;;7.67;80.27
72855;BME280;60991;51.278;22.550;2023-04-26T02:22:48;98194.34;;;7.57;80.70
72855;BME280;60991;51.278;22.550;2023-04-26T02:24:19;98203.00;;;7.53;80.99
72855;BME280;60991;51.278;22.550;2023-04-26T02:25:49;98207.56;;;7.57;80.87
72855;BME280;60991;51.278;22.550;2023-04-26T02:27:19;98203.06;;;7.58;80.74
72855;BME280;60991;51.278;22.550;2023-04-26T02:28:49;98203.19;;;7.46;81.71
72855;BME280;60991;51.278;22.550;2023-04-26T02:30:19;98206.44;;;7.53;81.20
72855;BME280;60991;51.278;22.550;2023-04-26T02:31:50;98206.78;;;7.62;80.51
72855;BME280;60991;51.278;22.550;2023-04-26T02:33:20;98207.09;;;7.65;80.93
72855;BME280;60991;51.278;22.550;2023-04-26T02:34:50;98202.91;;;7.70;81.08
72855;BME280;60991;51.278;22.550;2023-04-26T02:36:20;98200.66;;;7.78;80.79
72855;BME280;60991;51.278;22.550;2023-04-26T02:37:51;98210.69;;;7.81;81.11
72855;BME280;60991;51.278;22.550;2023-04-26T02:39:21;98209.16;;;7.85;80.36
72855;BME280;60991;51.278;22.550;2023-04-26T02:40:59;98203.09;;;7.85;80.63
72855;BME280;60991;51.278;22.550;2023-04-26T02:42:29;98206.22;;;7.82;80.57
72855;BME280;60991;51.278;22.550;2023-04-26T02:43:59;98199.69;;;7.89;80.92
72855;BME280;60991;51.278;22.550;2023-04-26T02:45:29;98196.88;;;7.96;80.01
72855;BME280;60991;51.278;22.550;2023-04-26T02:47:00;98197.66;;;7.96;79.95
72855;BME280;60991;51.278;22.550;2023-04-26T02:48:30;98207.22;;;7.76;80.59
72855;BME280;60991;51.278;22.550;2023-04-26T02:50:00;98199.25;;;7.71;81.01
72855;BME280;60991;51.278;22.550;2023-04-26T02:51:31;98209.31;;;7.74;80.39
72855;BME280;60991;51.278;22.550;2023-04-26T02:53:01;98204.09;;;7.79;80.71
72855;BME280;60991;51.278;22.550;2023-04-26T02:54:31;98205.19;;;7.61;80.69
72855;BME280;60991;51.278;22.550;2023-04-26T02:56:01;98204.75;;;7.69;80.54
72855;BME280;60991;51.278;22.550;2023-04-26T02:57:32;98205.56;;;7.70;80.39
72855;BME280;60991;51.278;22.550;2023-04-26T02:59:02;98212.34;;;7.60;81.21
72855;BME280;60991;51.278;22.550;2023-04-26T03:00:32;98208.94;;;7.65;80.50
72855;BME280;60991;51.278;22.550;2023-04-26T03:02:02;98213.66;;;7.63;80.65
72855;BME280;60991;51.278;22.550;2023-04-26T03:03:33;98211.41;;;7.50;81.25
72855;BME280;60991;51.278;22.550;2023-04-26T03:05:03;98211.47;;;7.55;80.63
72855;BME280;60991;51.278;22.550;2023-04-26T03:06:34;98219.56;;;7.70;80.58
72855;BME280;60991;51.278;22.550;2023-04-26T03:08:04;98221.84;;;7.61;80.17
72855;BME280;60991;51.278;22.550;2023-04-26T03:09:34;98224.63;;;7.50;80.97
72855;BME280;60991;51.278;22.550;2023-04-26T03:11:04;98220.63;;;7.47;80.58
72855;BME280;60991;51.278;22.550;2023-04-26T03:12:34;98229.53;;;7.41;80.63
72855;BME280;60991;51.278;22.550;2023-04-26T03:14:05;98232.41;;;7.40;81.44
72855;BME280;60991;51.278;22.550;2023-04-26T03:15:35;98233.94;;;7.36;81.10
72855;BME280;60991;51.278;22.550;2023-04-26T03:17:05;98233.16;;;7.35;80.44
72855;BME280;60991;51.278;22.550;2023-04-26T03:18:35;98237.69;;;7.40;79.98
72855;BME280;60991;51.278;22.550;2023-04-26T03:20:06;98245.00;;;7.33;80.71
72855;BME280;60991;51.278;22.550;2023-04-26T03:21:36;98240.94;;;7.47;80.27
72855;BME280;60991;51.278;22.550;2023-04-26T03:23:07;98241.63;;;7.59;79.23
72855;BME280;60991;51.278;22.550;2023-04-26T03:24:37;98248.94;;;7.52;79.45
72855;BME280;60991;51.278;22.550;2023-04-26T03:26:07;98245.38;;;7.41;79.90
72855;BME280;60991;51.278;22.550;2023-04-26T03:27:37;98252.06;;;7.49;79.64
72855;BME280;60991;51.278;22.550;2023-04-26T03:29:07;98245.66;;;7.45;79.57
72855;BME280;60991;51.278;22.550;2023-04-26T03:30:37;98254.25;;;7.35;80.14
72855;BME280;60991;51.278;22.550;2023-04-26T03:32:08;98257.25;;;7.22;80.19
72855;BME280;60991;51.278;22.550;2023-04-26T03:33:38;98256.69;;;7.20;80.25
72855;BME280;60991;51.278;22.550;2023-04-26T03:35:08;98257.56;;;7.25;80.71
72855;BME280;60991;51.278;22.550;2023-04-26T03:36:38;98265.38;;;7.37;80.20
72855;BME280;60991;51.278;22.550;2023-04-26T03:38:09;98274.25;;;7.31;79.76
72855;BME280;60991;51.278;22.550;2023-04-26T03:39:39;98272.81;;;7.40;79.44
72855;BME280;60991;51.278;22.550;2023-04-26T03:41:09;98276.31;;;7.46;79.55
72855;BME280;60991;51.278;22.550;2023-04-26T03:42:39;98277.75;;;7.53;78.53
72855;BME280;60991;51.278;22.550;2023-04-26T03:44:10;98291.34;;;7.45;78.72
72855;BME280;60991;51.278;22.550;2023-04-26T03:45:40;98289.09;;;7.54;78.69
72855;BME280;60991;51.278;22.550;2023-04-26T03:47:10;98286.56;;;7.64;78.51
72855;BME280;60991;51.278;22.550;2023-04-26T03:48:40;98297.22;;;7.69;77.56
72855;BME280;60991;51.278;22.550;2023-04-26T03:50:11;98293.13;;;7.61;77.44
72855;BME280;60991;51.278;22.550;2023-04-26T03:51:41;98305.66;;;7.49;77.35
72855;BME280;60991;51.278;22.550;2023-04-26T03:53:11;98301.75;;;7.52;76.95
72855;BME280;60991;51.278;22.550;2023-04-26T03:54:41;98308.06;;;7.51;77.04
72855;BME280;60991;51.278;22.550;2023-04-26T03:56:12;98300.94;;;7.51;76.94
72855;BME280;60991;51.278;22.550;2023-04-26T03:57:42;98305.38;;;7.29;76.17
72855;BME280;60991;51.278;22.550;2023-04-26T03:59:12;98313.00;;;7.09;77.34
72855;BME280;60991;51.278;22.550;2023-04-26T04:00:42;98311.50;;;6.96;77.60
72855;BME280;60991;51.278;22.550;2023-04-26T04:02:12;98308.75;;;6.91;77.39
72855;BME280;60991;51.278;22.550;2023-04-26T04:03:43;98313.88;;;6.81;78.10
72855;BME280;60991;51.278;22.550;2023-04-26T04:05:13;98316.91;;;6.73;79.10
72855;BME280;60991;51.278;22.550;2023-04-26T04:06:43;98308.16;;;6.84;78.46
72855;BME280;60991;51.278;22.550;2023-04-26T04:08:13;98308.38;;;6.82;78.60
72855;BME280;60991;51.278;22.550;2023-04-26T04:09:43;98315.56;;;6.87;78.51
72855;BME280;60991;51.278;22.550;2023-04-26T04:11:14;98316.53;;;6.81;78.18
72855;BME280;60991;51.278;22.550;2023-04-26T04:12:44;98316.09;;;6.72;78.40
72855;BME280;60991;51.278;22.550;2023-04-26T04:14:14;98322.59;;;6.81;79.13
72855;BME280;60991;51.278;22.550;2023-04-26T04:15:44;98329.06;;;6.90;78.36
72855;BME280;60991;51.278;22.550;2023-04-26T04:17:14;98326.75;;;6.94;78.41
72855;BME280;60991;51.278;22.550;2023-04-26T04:18:45;98329.81;;;6.86;78.25
72855;BME280;60991;51.278;22.550;2023-04-26T04:20:15;98331.78;;;6.79;78.60
72855;BME280;60991;51.278;22.550;2023-04-26T04:21:45;98330.53;;;6.81;78.84
72855;BME280;60991;51.278;22.550;2023-04-26T04:23:15;98324.91;;;6.78;79.18
72855;BME280;60991;51.278;22.550;2023-04-26T04:24:46;98327.78;;;6.59;79.33
72855;BME280;60991;51.278;22.550;2023-04-26T04:26:16;98331.78;;;6.62;79.98
72855;BME280;60991;51.278;22.550;2023-04-26T04:27:47;98333.59;;;6.62;78.89
72855;BME280;60991;51.278;22.550;2023-04-26T04:29:17;98332.34;;;6.64;78.80
72855;BME280;60991;51.278;22.550;2023-04-26T04:30:47;98340.00;;;6.66;78.96
72855;BME280;60991;51.278;22.550;2023-04-26T04:32:18;98340.59;;;6.84;78.49
72855;BME280;60991;51.278;22.550;2023-04-26T04:33:49;98334.34;;;6.74;79.06
72855;BME280;60991;51.278;22.550;2023-04-26T04:35:19;98345.28;;;6.66;79.45
72855;BME280;60991;51.278;22.550;2023-04-26T04:36:49;98347.03;;;6.60;79.07
72855;BME280;60991;51.278;22.550;2023-04-26T04:38:20;98342.34;;;6.79;79.22
72855;BME280;60991;51.278;22.550;2023-04-26T04:39:54;98347.19;;;6.70;78.67
72855;BME280;60991;51.278;22.550;2023-04-26T04:41:24;98353.44;;;6.64;78.81
72855;BME280;60991;51.278;22.550;2023-04-26T04:42:54;98357.34;;;6.62;78.88
72855;BME280;60991;51.278;22.550;2023-04-26T04:44:24;98352.63;;;6.64;78.21
72855;BME280;60991;51.278;22.550;2023-04-26T04:45:55;98352.16;;;6.67;78.22
72855;BME280;60991;51.278;22.550;2023-04-26T04:47:25;98356.06;;;6.64;77.77
72855;BME280;60991;51.278;22.550;2023-04-26T04:48:55;98358.53;;;6.71;77.66
72855;BME280;60991;51.278;22.550;2023-04-26T04:50:25;98351.50;;;6.59;77.87
72855;BME280;60991;51.278;22.550;2023-04-26T04:51:56;98358.19;;;6.50;77.67
72855;BME280;60991;51.278;22.550;2023-04-26T04:53:26;98350.75;;;6.47;78.44
72855;BME280;60991;51.278;22.550;2023-04-26T04:54:56;98357.44;;;6.38;78.46
72855;BME280;60991;51.278;22.550;2023-04-26T04:56:26;98354.00;;;6.38;78.36
72855;BME280;60991;51.278;22.550;2023-04-26T04:57:56;98359.28;;;6.38;78.53
72855;BME280;60991;51.278;22.550;2023-04-26T04:59:27;98355.81;;;6.49;78.78
72855;BME280;60991;51.278;22.550;2023-04-26T05:00:57;98359.69;;;6.46;78.20
72855;BME280;60991;51.278;22.550;2023-04-26T05:02:27;98365.69;;;6.42;78.06
72855;BME280;60991;51.278;22.550;2023-04-26T05:03:58;98362.25;;;6.41;78.64
72855;BME280;60991;51.278;22.550;2023-04-26T05:05:28;98364.88;;;6.41;77.75
72855;BME280;60991;51.278;22.550;2023-04-26T05:07:01;98361.44;;;6.41;77.55
72855;BME280;60991;51.278;22.550;2023-04-26T05:08:31;98367.50;;;6.41;77.38
72855;BME280;60991;51.278;22.550;2023-04-26T05:10:02;98372.56;;;6.43;78.04
72855;BME280;60991;51.278;22.550;2023-04-26T05:11:32;98382.84;;;6.44;77.74
72855;BME280;60991;51.278;22.550;2023-04-26T05:13:03;98380.22;;;6.44;76.40
72855;BME280;60991;51.278;22.550;2023-04-26T05:14:33;98383.22;;;6.36;76.71
72855;BME280;60991;51.278;22.550;2023-04-26T05:16:03;98383.22;;;6.36;77.26
72855;BME280;60991;51.278;22.550;2023-04-26T05:17:34;98372.69;;;6.36;77.62
72855;BME280;60991;51.278;22.550;2023-04-26T05:19:04;98385.06;;;6.36;77.28
72855;BME280;60991;51.278;22.550;2023-04-26T05:20:34;98388.13;;;6.44;76.74
72855;BME280;60991;51.278;22.550;2023-04-26T05:22:04;98387.75;;;6.52;76.55
72855;BME280;60991;51.278;22.550;2023-04-26T05:23:34;98383.28;;;6.53;76.78
72855;BME280;60991;51.278;22.550;2023-04-26T05:25:05;98394.63;;;6.53;76.57
72855;BME280;60991;51.278;22.550;2023-04-26T05:26:36;98389.09;;;6.55;75.60
72855;BME280;60991;51.278;22.550;2023-04-26T05:28:06;98390.88;;;6.49;75.66
72855;BME280;60991;51.278;22.550;2023-04-26T05:29:36;98392.94;;;6.47;76.34
72855;BME280;60991;51.278;22.550;2023-04-26T05:31:10;98396.78;;;6.56;75.84
72855;BME280;60991;51.278;22.550;2023-04-26T05:32:40;98399.66;;;6.55;75.38
72855;BME280;60991;51.278;22.550;2023-04-26T05:34:10;98399.47;;;6.45;75.53
72855;BME280;60991;51.278;22.550;2023-04-26T05:35:40;98390.66;;;6.39;76.08
72855;BME280;60991;51.278;22.550;2023-04-26T05:37:11;98396.16;;;6.49;75.75
72855;BME280;60991;51.278;22.550;2023-04-26T05:38:41;98398.69;;;6.44;75.70
72855;BME280;60991;51.278;22.550;2023-04-26T05:40:11;98393.88;;;6.41;75.90
72855;BME280;60991;51.278;22.550;2023-04-26T05:41:42;98390.78;;;6.44;76.89
72855;BME280;60991;51.278;22.550;2023-04-26T05:43:12;98392.78;;;6.54;76.71
72855;BME280;60991;51.278;22.550;2023-04-26T05:44:42;98390.25;;;6.59;74.70
72855;BME280;60991;51.278;22.550;2023-04-26T05:46:13;98391.28;;;6.58;75.79
72855;BME280;60991;51.278;22.550;2023-04-26T05:47:43;98396.31;;;6.59;76.16
72855;BME280;60991;51.278;22.550;2023-04-26T05:49:13;98393.84;;;6.70;75.74
72855;BME280;60991;51.278;22.550;2023-04-26T05:50:43;98393.63;;;6.71;74.99
72855;BME280;60991;51.278;22.550;2023-04-26T05:52:13;98392.91;;;6.76;75.25
72855;BME280;60991;51.278;22.550;2023-04-26T05:53:44;98390.41;;;6.98;74.94
72855;BME280;60991;51.278;22.550;2023-04-26T05:55:14;98385.69;;;7.00;74.30
72855;BME280;60991;51.278;22.550;2023-04-26T05:56:44;98406.31;;;7.03;75.06
72855;BME280;60991;51.278;22.550;2023-04-26T05:58:14;98406.34;;;7.19;75.06
72855;BME280;60991;51.278;22.550;2023-04-26T05:59:45;98399.03;;;7.26;74.00
72855;BME280;60991;51.278;22.550;2023-04-26T06:01:15;98401.44;;;7.28;73.09
72855;BME280;60991;51.278;22.550;2023-04-26T06:02:46;98395.22;;;7.17;73.91
72855;BME280;60991;51.278;22.550;2023-04-26T06:04:16;98395.22;;;7.17;73.79
72855;BME280;60991;51.278;22.550;2023-04-26T06:05:46;98402.97;;;7.24;72.81
72855;BME280;60991;51.278;22.550;2023-04-26T06:07:16;98408.19;;;7.19;73.49
72855;BME280;60991;51.278;22.550;2023-04-26T06:08:46;98403.84;;;7.13;73.75
72855;BME280;60991;51.278;22.550;2023-04-26T06:10:17;98398.00;;;7.11;73.33
72855;BME280;60991;51.278;22.550;2023-04-26T06:11:47;98409.13;;;7.13;72.97
72855;BME280;60991;51.278;22.550;2023-04-26T06:13:17;98420.00;;;7.16;74.39
72855;BME280;60991;51.278;22.550;2023-04-26T06:14:47;98421.19;;;7.25;73.91
72855;BME280;60991;51.278;22.550;2023-04-26T06:16:17;98425.94;;;7.40;73.96
72855;BME280;60991;51.278;22.550;2023-04-26T06:17:48;98427.13;;;7.49;72.09
72855;BME280;60991;51.278;22.550;2023-04-26T06:19:18;98425.28;;;7.33;71.41
72855;BME280;60991;51.278;22.550;2023-04-26T06:20:48;98430.66;;;7.21;71.37
72855;BME280;60991;51.278;22.550;2023-04-26T06:22:18;98424.41;;;7.11;71.91
72855;BME280;60991;51.278;22.550;2023-04-26T06:23:48;98436.63;;;7.00;71.95
72855;BME280;60991;51.278;22.550;2023-04-26T06:25:19;98425.63;;;6.91;72.14
72855;BME280;60991;51.278;22.550;2023-04-26T06:26:49;98433.47;;;6.86;73.21
72855;BME280;60991;51.278;22.550;2023-04-26T06:28:19;98432.63;;;6.98;73.17
72855;BME280;60991;51.278;22.550;2023-04-26T06:29:49;98432.75;;;6.91;73.02
72855;BME280;60991;51.278;22.550;2023-04-26T06:31:20;98433.63;;;6.80;72.82
72855;BME280;60991;51.278;22.550;2023-04-26T06:32:50;98439.69;;;6.80;73.13
72855;BME280;60991;51.278;22.550;2023-04-26T06:34:20;98433.63;;;6.80;74.10
72855;BME280;60991;51.278;22.550;2023-04-26T06:35:50;98437.28;;;6.79;72.25
72855;BME280;60991;51.278;22.550;2023-04-26T06:37:20;98440.06;;;6.72;72.74
72855;BME280;60991;51.278;22.550;2023-04-26T06:38:51;98436.38;;;6.73;73.69
72855;BME280;60991;51.278;22.550;2023-04-26T06:40:21;98440.63;;;6.74;73.01
72855;BME280;60991;51.278;22.550;2023-04-26T06:41:51;98442.34;;;6.80;73.00
72855;BME280;60991;51.278;22.550;2023-04-26T06:43:21;98445.22;;;6.79;72.58
72855;BME280;60991;51.278;22.550;2023-04-26T06:44:51;98448.88;;;6.78;73.33
72855;BME280;60991;51.278;22.550;2023-04-26T06:46:22;98444.63;;;6.77;73.13
72855;BME280;60991;51.278;22.550;2023-04-26T06:47:52;98455.97;;;6.77;73.29
72855;BME280;60991;51.278;22.550;2023-04-26T06:49:23;98451.28;;;6.79;74.05
72855;BME280;60991;51.278;22.550;2023-04-26T06:50:53;98455.84;;;6.84;73.38
72855;BME280;60991;51.278;22.550;2023-04-26T06:52:24;98459.53;;;6.83;73.83
72855;BME280;60991;51.278;22.550;2023-04-26T06:53:54;98469.91;;;6.89;74.03
72855;BME280;60991;51.278;22.550;2023-04-26T06:55:25;98463.34;;;7.04;73.02
72855;BME280;60991;51.278;22.550;2023-04-26T06:56:55;98466.78;;;7.04;73.19
72855;BME280;60991;51.278;22.550;2023-04-26T06:58:25;98464.03;;;6.99;73.40
72855;BME280;60991;51.278;22.550;2023-04-26T06:59:55;98467.72;;;6.98;73.57
72855;BME280;60991;51.278;22.550;2023-04-26T07:01:29;98474.94;;;7.03;73.33
72855;BME280;60991;51.278;22.550;2023-04-26T07:03:00;98475.91;;;7.13;73.64
72855;BME280;60991;51.278;22.550;2023-04-26T07:04:30;98487.13;;;7.20;73.22
72855;BME280;60991;51.278;22.550;2023-04-26T07:06:01;98480.41;;;7.29;74.01
72855;BME280;60991;51.278;22.550;2023-04-26T07:07:31;98486.81;;;7.34;73.07
72855;BME280;60991;51.278;22.550;2023-04-26T07:09:01;98488.09;;;7.31;73.06
72855;BME280;60991;51.278;22.550;2023-04-26T07:10:31;98481.06;;;7.37;72.99
72855;BME280;60991;51.278;22.550;2023-04-26T07:12:02;98490.50;;;7.49;72.34
72855;BME280;60991;51.278;22.550;2023-04-26T07:13:32;98495.47;;;7.62;72.83
72855;BME280;60991;51.278;22.550;2023-04-26T07:15:02;98495.41;;;7.57;71.90
72855;BME280;60991;51.278;22.550;2023-04-26T07:16:32;98486.25;;;7.48;71.93
72855;BME280;60991;51.278;22.550;2023-04-26T07:18:03;98483.84;;;7.47;71.20
72855;BME280;60991;51.278;22.550;2023-04-26T07:19:33;98488.41;;;7.35;71.55
72855;BME280;60991;51.278;22.550;2023-04-26T07:21:03;98484.41;;;7.32;71.77
72855;BME280;60991;51.278;22.550;2023-04-26T07:22:33;98485.59;;;7.24;71.82
72855;BME280;60991;51.278;22.550;2023-04-26T07:24:04;98486.38;;;7.25;71.85
72855;BME280;60991;51.278;22.550;2023-04-26T07:25:34;98488.00;;;7.43;72.01
72855;BME280;60991;51.278;22.550;2023-04-26T07:27:04;98493.56;;;7.41;71.60
72855;BME280;60991;51.278;22.550;2023-04-26T07:28:34;98489.31;;;7.40;70.25
72855;BME280;60991;51.278;22.550;2023-04-26T07:30:05;98493.13;;;7.33;69.88
72855;BME280;60991;51.278;22.550;2023-04-26T07:31:35;98497.94;;;7.36;69.75
72855;BME280;60991;51.278;22.550;2023-04-26T07:33:06;98493.69;;;7.35;70.05
72855;BME280;60991;51.278;22.550;2023-04-26T07:34:36;98492.19;;;7.39;69.21
72855;BME280;60991;51.278;22.550;2023-04-26T07:36:06;98488.28;;;7.41;68.48
72855;BME280;60991;51.278;22.550;2023-04-26T07:37:36;98493.63;;;7.46;69.15
72855;BME280;60991;51.278;22.550;2023-04-26T07:39:07;98502.84;;;7.60;68.66
72855;BME280;60991;51.278;22.550;2023-04-26T07:40:37;98493.16;;;7.66;69.48
72855;BME280;60991;51.278;22.550;2023-04-26T07:42:07;98498.03;;;7.74;69.07
72855;BME280;60991;51.278;22.550;2023-04-26T07:43:38;98499.88;;;7.74;68.55
72855;BME280;60991;51.278;22.550;2023-04-26T07:45:08;98494.13;;;7.77;69.01
72855;BME280;60991;51.278;22.550;2023-04-26T07:46:39;98498.66;;;7.81;69.38
72855;BME280;60991;51.278;22.550;2023-04-26T07:48:09;98498.75;;;7.86;69.52
72855;BME280;60991;51.278;22.550;2023-04-26T07:49:39;98505.25;;;7.95;66.72
72855;BME280;60991;51.278;22.550;2023-04-26T07:51:10;98498.50;;;7.88;67.56
72855;BME280;60991;51.278;22.550;2023-04-26T07:52:40;98497.31;;;7.95;68.53
72855;BME280;60991;51.278;22.550;2023-04-26T07:54:11;98501.13;;;8.05;67.14
72855;BME280;60991;51.278;22.550;2023-04-26T07:55:41;98492.97;;;8.06;66.85
72855;BME280;60991;51.278;22.550;2023-04-26T07:57:11;98505.69;;;8.09;66.07
72855;BME280;60991;51.278;22.550;2023-04-26T07:58:41;98504.09;;;8.08;66.32